sensor_id;sensor_type;location;lat;lon;timestamp;pressure;altitude;pressure_sealevel;temperature;humidity
25232;BME280;13176;51.140;6.290;2022-08-03T00:01:49;100742.28;;;25.92;50.61
25232;BME280;13176;51.140;6.290;2022-08-03T00:04:16;100729.19;;;25.77;51.13
25232;BME280;13176;51.140;6.290;2022-08-03T00:06:43;100765.50;;;25.92;51.12
25232;BME280;13176;51.140;6.290;2022-08-03T00:09:10;100655.31;;;25.29;51.24
25232;BME280;13176;51.140;6.290;2022-08-03T00:11:37;100667.50;;;25.33;51.31
25232;BME280;13176;51.140;6.290;2022-08-03T00:14:05;100826.59;;;26.32;51.41
25232;BME280;13176;51.140;6.290;2022-08-03T00:16:31;100826.97;;;26.39;51.29
25232;BME280;13176;51.140;6.290;2022-08-03T00:18:58;100842.66;;;26.32;51.77
25232;BME280;13176;51.140;6.290;2022-08-03T00:21:26;100817.16;;;26.16;51.89
25232;BME280;13176;51.140;6.290;2022-08-03T00:23:53;100752.94;;;25.81;51.57
25232;BME280;13176;51.140;6.290;2022-08-03T00:26:20;100737.22;;;25.77;51.46
25232;BME280;13176;51.140;6.290;2022-08-03T00:28:47;100737.66;;;25.71;51.70
25232;BME280;13176;51.140;6.290;2022-08-03T00:31:14;100832.25;;;26.17;51.85
25232;BME280;13176;51.140;6.290;2022-08-03T00:33:41;100723.94;;;25.52;51.80
25232;BME280;13176;51.140;6.290;2022-08-03T00:36:23;100791.78;;;25.98;51.98
25232;BME280;13176;51.140;6.290;2022-08-03T00:38:50;100838.53;;;26.05;52.38
25232;BME280;13176;51.140;6.290;2022-08-03T00:41:16;100668.94;;;25.14;52.29
25232;BME280;13176;51.140;6.290;2022-08-03T00:43:43;100744.56;;;25.62;52.46
25232;BME280;13176;51.140;6.290;2022-08-03T00:46:10;100740.56;;;25.45;52.31
25232;BME280;13176;51.140;6.290;2022-08-03T00:48:36;100639.25;;;24.82;52.81
25232;BME280;13176;51.140;6.290;2022-08-03T00:51:03;100831.75;;;25.88;53.10
25232;BME280;13176;51.140;6.290;2022-08-03T00:53:30;100831.38;;;25.82;53.08
25232;BME280;13176;51.140;6.290;2022-08-03T00:55:57;100820.66;;;25.82;52.89
25232;BME280;13176;51.140;6.290;2022-08-03T00:58:24;100836.50;;;25.85;53.24
25232;BME280;13176;51.140;6.290;2022-08-03T01:00:51;100827.72;;;25.83;53.25
25232;BME280;13176;51.140;6.290;2022-08-03T01:03:17;100834.81;;;25.95;53.20
25232;BME280;13176;51.140;6.290;2022-08-03T01:05:54;100826.88;;;25.70;53.73
25232;BME280;13176;51.140;6.290;2022-08-03T01:08:42;100821.91;;;25.53;54.02
25232;BME280;13176;51.140;6.290;2022-08-03T01:14:09;100839.06;;;25.74;54.07
25232;BME280;13176;51.140;6.290;2022-08-03T01:16:54;100834.16;;;25.68;54.01
25232;BME280;13176;51.140;6.290;2022-08-03T01:19:50;100806.00;;;25.51;53.83
25232;BME280;13176;51.140;6.290;2022-08-03T01:27:53;100833.94;;;25.71;53.70
25232;BME280;13176;51.140;6.290;2022-08-03T01:30:28;100825.41;;;25.66;53.89
25232;BME280;13176;51.140;6.290;2022-08-03T01:33:07;100815.38;;;25.57;53.48
25232;BME280;13176;51.140;6.290;2022-08-03T01:35:51;100829.47;;;25.59;53.97
25232;BME280;13176;51.140;6.290;2022-08-03T01:38:39;100800.25;;;25.45;53.87
25232;BME280;13176;51.140;6.290;2022-08-03T01:41:52;100819.47;;;25.50;53.83
25232;BME280;13176;51.140;6.290;2022-08-03T01:44:01;100728.66;;;24.89;53.90
25232;BME280;13176;51.140;6.290;2022-08-03T01:46:49;100802.41;;;25.40;53.73
25232;BME280;13176;51.140;6.290;2022-08-03T01:49:17;100791.75;;;25.15;54.41
25232;BME280;13176;51.140;6.290;2022-08-03T01:51:46;100731.44;;;24.88;54.52
25232;BME280;13176;51.140;6.290;2022-08-03T01:54:35;100777.88;;;25.23;54.41
25232;BME280;13176;51.140;6.290;2022-08-03T01:57:03;100789.31;;;25.12;54.39
25232;BME280;13176;51.140;6.290;2022-08-03T01:59:33;100782.78;;;25.16;54.68
25232;BME280;13176;51.140;6.290;2022-08-03T02:02:01;100802.13;;;25.20;54.93
25232;BME280;13176;51.140;6.290;2022-08-03T02:04:49;100793.66;;;25.13;54.65
25232;BME280;13176;51.140;6.290;2022-08-03T02:07:18;100799.88;;;25.14;54.73
25232;BME280;13176;51.140;6.290;2022-08-03T02:09:49;100774.06;;;24.89;55.12
25232;BME280;13176;51.140;6.290;2022-08-03T02:12:16;100815.06;;;25.01;55.35
25232;BME280;13176;51.140;6.290;2022-08-03T02:14:44;100750.16;;;24.63;55.25
25232;BME280;13176;51.140;6.290;2022-08-03T02:17:12;100690.56;;;24.25;55.46
25232;BME280;13176;51.140;6.290;2022-08-03T02:19:41;100659.19;;;24.04;55.63
25232;BME280;13176;51.140;6.290;2022-08-03T02:22:10;100816.13;;;25.11;55.20
25232;BME280;13176;51.140;6.290;2022-08-03T02:24:37;100676.59;;;24.22;55.09
25232;BME280;13176;51.140;6.290;2022-08-03T02:27:09;100729.78;;;24.49;55.32
25232;BME280;13176;51.140;6.290;2022-08-03T02:29:39;100818.28;;;24.93;55.22
25232;BME280;13176;51.140;6.290;2022-08-03T02:32:13;100816.75;;;25.02;55.12
25232;BME280;13176;51.140;6.290;2022-08-03T02:34:45;100818.72;;;24.87;55.63
25232;BME280;13176;51.140;6.290;2022-08-03T02:37:13;100719.41;;;24.32;55.60
25232;BME280;13176;51.140;6.290;2022-08-03T02:39:42;100812.28;;;24.77;56.07
25232;BME280;13176;51.140;6.290;2022-08-03T02:42:11;100813.38;;;24.87;55.64
25232;BME280;13176;51.140;6.290;2022-08-03T02:44:39;100663.28;;;23.97;55.92
25232;BME280;13176;51.140;6.290;2022-08-03T02:47:09;100805.25;;;24.76;nan
25232;BME280;13176;51.140;6.290;2022-08-03T02:49:37;100809.41;;;24.80;55.81
25232;BME280;13176;51.140;6.290;2022-08-03T02:52:19;100799.25;;;24.85;55.87
25232;BME280;13176;51.140;6.290;2022-08-03T02:54:48;100739.38;;;24.39;56.61
25232;BME280;13176;51.140;6.290;2022-08-03T02:57:17;100729.13;;;24.33;56.18
25232;BME280;13176;51.140;6.290;2022-08-03T02:59:45;100791.81;;;24.65;56.30
25232;BME280;13176;51.140;6.290;2022-08-03T03:02:14;100801.19;;;24.71;56.30
25232;BME280;13176;51.140;6.290;2022-08-03T03:04:43;100728.56;;;24.28;56.05
25232;BME280;13176;51.140;6.290;2022-08-03T03:07:30;100713.00;;;24.23;55.79
25232;BME280;13176;51.140;6.290;2022-08-03T03:10:16;100710.63;;;24.06;56.11
25232;BME280;13176;51.140;6.290;2022-08-03T03:12:44;100781.22;;;24.51;56.33
25232;BME280;13176;51.140;6.290;2022-08-03T03:15:11;100680.22;;;23.96;56.08
25232;BME280;13176;51.140;6.290;2022-08-03T03:17:38;100790.94;;;24.52;56.51
25232;BME280;13176;51.140;6.290;2022-08-03T03:20:06;100767.53;;;24.31;56.93
25232;BME280;13176;51.140;6.290;2022-08-03T03:22:34;100783.66;;;24.29;57.13
25232;BME280;13176;51.140;6.290;2022-08-03T03:25:01;100800.09;;;24.36;56.73
25232;BME280;13176;51.140;6.290;2022-08-03T03:27:28;100695.72;;;23.77;56.72
25232;BME280;13176;51.140;6.290;2022-08-03T03:29:56;100775.94;;;24.25;56.85
25232;BME280;13176;51.140;6.290;2022-08-03T03:32:23;100610.38;;;23.27;56.98
25232;BME280;13176;51.140;6.290;2022-08-03T03:34:49;100815.25;;;24.35;57.39
25232;BME280;13176;51.140;6.290;2022-08-03T03:37:16;100724.88;;;23.80;57.56
25232;BME280;13176;51.140;6.290;2022-08-03T03:39:43;100684.63;;;23.58;57.77
25232;BME280;13176;51.140;6.290;2022-08-03T03:42:09;100769.28;;;24.06;57.72
25232;BME280;13176;51.140;6.290;2022-08-03T03:44:36;100707.66;;;23.59;57.80
25232;BME280;13176;51.140;6.290;2022-08-03T03:47:03;100786.16;;;23.94;58.47
25232;BME280;13176;51.140;6.290;2022-08-03T03:49:30;100789.78;;;23.93;58.60
25232;BME280;13176;51.140;6.290;2022-08-03T03:51:57;100799.88;;;23.88;58.73
25232;BME280;13176;51.140;6.290;2022-08-03T03:54:24;100705.31;;;23.28;58.33
25232;BME280;13176;51.140;6.290;2022-08-03T03:56:54;100710.34;;;23.18;59.06
25232;BME280;13176;51.140;6.290;2022-08-03T03:59:20;100791.78;;;23.63;58.89
25232;BME280;13176;51.140;6.290;2022-08-03T04:01:47;100806.75;;;23.78;58.71
25232;BME280;13176;51.140;6.290;2022-08-03T04:04:24;100805.63;;;23.82;59.14
25232;BME280;13176;51.140;6.290;2022-08-03T04:07:09;100759.44;;;23.55;58.70
25232;BME280;13176;51.140;6.290;2022-08-03T04:09:54;100790.63;;;23.67;59.00
25232;BME280;13176;51.140;6.290;2022-08-03T04:12:41;100790.50;;;23.68;58.81
25232;BME280;13176;51.140;6.290;2022-08-03T04:15:18;100803.72;;;23.84;58.88
25232;BME280;13176;51.140;6.290;2022-08-03T04:17:48;100736.25;;;23.43;58.67
25232;BME280;13176;51.140;6.290;2022-08-03T04:20:18;100677.19;;;23.10;58.38
25232;BME280;13176;51.140;6.290;2022-08-03T04:22:50;100809.59;;;23.89;58.46
25232;BME280;13176;51.140;6.290;2022-08-03T04:25:19;100714.44;;;23.24;58.29
25232;BME280;13176;51.140;6.290;2022-08-03T04:27:49;100678.91;;;23.11;58.48
25232;BME280;13176;51.140;6.290;2022-08-03T04:30:38;100629.28;;;22.96;58.35
25232;BME280;13176;51.140;6.290;2022-08-03T04:33:06;100787.44;;;23.74;58.63
25232;BME280;13176;51.140;6.290;2022-08-03T04:35:34;100800.53;;;23.65;59.21
25232;BME280;13176;51.140;6.290;2022-08-03T04:38:23;100797.50;;;23.57;59.32
25232;BME280;13176;51.140;6.290;2022-08-03T04:40:51;100790.50;;;23.42;59.96
25232;BME280;13176;51.140;6.290;2022-08-03T04:43:19;100819.66;;;23.57;60.26
25232;BME280;13176;51.140;6.290;2022-08-03T04:45:49;100636.22;;;22.58;60.05
25232;BME280;13176;51.140;6.290;2022-08-03T04:48:16;100790.66;;;23.53;59.86
25232;BME280;13176;51.140;6.290;2022-08-03T04:50:43;100808.00;;;23.72;59.90
25232;BME280;13176;51.140;6.290;2022-08-03T04:53:09;100708.75;;;23.16;59.78
25232;BME280;13176;51.140;6.290;2022-08-03T04:55:36;100622.69;;;22.75;59.68
25232;BME280;13176;51.140;6.290;2022-08-03T04:58:03;100808.47;;;23.79;59.92
25232;BME280;13176;51.140;6.290;2022-08-03T05:00:29;100728.53;;;23.26;59.94
25232;BME280;13176;51.140;6.290;2022-08-03T05:02:56;100730.56;;;23.35;60.05
25232;BME280;13176;51.140;6.290;2022-08-03T05:05:23;100764.22;;;23.50;60.16
25232;BME280;13176;51.140;6.290;2022-08-03T05:07:49;100711.22;;;23.19;60.25
25232;BME280;13176;51.140;6.290;2022-08-03T05:10:16;100805.03;;;23.77;60.36
25232;BME280;13176;51.140;6.290;2022-08-03T05:12:44;100836.06;;;23.92;60.59
25232;BME280;13176;51.140;6.290;2022-08-03T05:15:11;100836.63;;;23.97;60.42
25232;BME280;13176;51.140;6.290;2022-08-03T05:17:38;100789.44;;;23.71;60.50
25232;BME280;13176;51.140;6.290;2022-08-03T05:20:05;100797.41;;;23.85;60.38
25232;BME280;13176;51.140;6.290;2022-08-03T05:22:32;100826.72;;;24.11;60.32
25232;BME280;13176;51.140;6.290;2022-08-03T05:25:00;100812.84;;;24.06;60.03
25232;BME280;13176;51.140;6.290;2022-08-03T05:27:26;100771.72;;;23.84;60.02
25232;BME280;13176;51.140;6.290;2022-08-03T05:29:53;100764.63;;;23.97;60.02
25232;BME280;13176;51.140;6.290;2022-08-03T05:32:19;100804.34;;;24.26;59.45
25232;BME280;13176;51.140;6.290;2022-08-03T05:34:46;100827.94;;;24.44;59.19
25232;BME280;13176;51.140;6.290;2022-08-03T05:37:13;100735.38;;;24.08;59.31
25232;BME280;13176;51.140;6.290;2022-08-03T05:39:39;100715.66;;;23.98;57.93
25232;BME280;13176;51.140;6.290;2022-08-03T05:42:06;100783.91;;;24.51;58.28
25232;BME280;13176;51.140;6.290;2022-08-03T05:44:32;100751.00;;;24.38;57.37
25232;BME280;13176;51.140;6.290;2022-08-03T05:46:59;100738.91;;;24.45;57.54
25232;BME280;13176;51.140;6.290;2022-08-03T05:49:25;100814.44;;;24.97;56.98
25232;BME280;13176;51.140;6.290;2022-08-03T05:51:52;100758.47;;;24.71;56.53
25232;BME280;13176;51.140;6.290;2022-08-03T05:54:35;100723.25;;;24.53;56.95
25232;BME280;13176;51.140;6.290;2022-08-03T05:57:21;100841.56;;;25.16;56.77
25232;BME280;13176;51.140;6.290;2022-08-03T05:59:48;100816.34;;;25.08;57.42
25232;BME280;13176;51.140;6.290;2022-08-03T06:02:25;100753.25;;;24.69;56.91
25232;BME280;13176;51.140;6.290;2022-08-03T06:04:51;100828.31;;;25.27;56.23
25232;BME280;13176;51.140;6.290;2022-08-03T06:07:18;100828.31;;;25.27;56.59
25232;BME280;13176;51.140;6.290;2022-08-03T06:09:44;100801.78;;;25.24;56.53
25232;BME280;13176;51.140;6.290;2022-08-03T06:12:31;100748.19;;;25.02;55.97
25232;BME280;13176;51.140;6.290;2022-08-03T06:15:02;100808.75;;;25.50;55.89
25232;BME280;13176;51.140;6.290;2022-08-03T06:17:29;100839.50;;;25.68;55.61
25232;BME280;13176;51.140;6.290;2022-08-03T06:20:04;100825.78;;;25.72;55.75
25232;BME280;13176;51.140;6.290;2022-08-03T06:22:30;100766.47;;;25.44;55.23
25232;BME280;13176;51.140;6.290;2022-08-03T06:24:57;100838.16;;;25.86;55.52
25232;BME280;13176;51.140;6.290;2022-08-03T06:27:29;100774.53;;;25.55;54.94
25232;BME280;13176;51.140;6.290;2022-08-03T06:30:03;100781.78;;;25.65;55.24
25232;BME280;13176;51.140;6.290;2022-08-03T06:32:30;100799.75;;;25.87;54.34
25232;BME280;13176;51.140;6.290;2022-08-03T06:34:56;100838.06;;;26.11;54.43
25232;BME280;13176;51.140;6.290;2022-08-03T06:37:23;100815.91;;;26.09;54.48
25232;BME280;13176;51.140;6.290;2022-08-03T06:39:49;100739.88;;;25.77;54.23
25232;BME280;13176;51.140;6.290;2022-08-03T06:42:16;100826.19;;;26.26;53.90
25232;BME280;13176;51.140;6.290;2022-08-03T06:44:43;100831.06;;;26.32;54.23
25232;BME280;13176;51.140;6.290;2022-08-03T06:47:09;100824.00;;;26.31;54.31
25232;BME280;13176;51.140;6.290;2022-08-03T06:49:36;100829.41;;;26.42;53.92
25232;BME280;13176;51.140;6.290;2022-08-03T06:52:03;100808.97;;;26.41;53.55
25232;BME280;13176;51.140;6.290;2022-08-03T06:54:51;100859.72;;;26.76;53.39
25232;BME280;13176;51.140;6.290;2022-08-03T06:57:17;100764.16;;;26.21;53.55
25232;BME280;13176;51.140;6.290;2022-08-03T06:59:44;100763.19;;;26.33;53.36
25232;BME280;13176;51.140;6.290;2022-08-03T07:02:30;100833.16;;;26.73;52.75
25232;BME280;13176;51.140;6.290;2022-08-03T07:04:57;100783.44;;;26.48;53.03
25232;BME280;13176;51.140;6.290;2022-08-03T07:07:23;100847.28;;;26.97;53.13
25232;BME280;13176;51.140;6.290;2022-08-03T07:09:50;100759.63;;;26.56;53.08
25232;BME280;13176;51.140;6.290;2022-08-03T07:12:23;100842.13;;;27.07;53.16
25232;BME280;13176;51.140;6.290;2022-08-03T07:14:50;100856.72;;;27.14;51.87
25232;BME280;13176;51.140;6.290;2022-08-03T07:17:19;100850.13;;;27.18;52.29
25232;BME280;13176;51.140;6.290;2022-08-03T07:19:46;100825.56;;;27.13;51.99
25232;BME280;13176;51.140;6.290;2022-08-03T07:22:12;100749.84;;;26.66;51.74
25232;BME280;13176;51.140;6.290;2022-08-03T07:24:39;100774.97;;;26.86;51.81
25232;BME280;13176;51.140;6.290;2022-08-03T07:27:07;100868.19;;;27.38;51.08
25232;BME280;13176;51.140;6.290;2022-08-03T07:29:35;100863.53;;;27.51;50.79
25232;BME280;13176;51.140;6.290;2022-08-03T07:32:03;100781.28;;;26.96;50.62
25232;BME280;13176;51.140;6.290;2022-08-03T07:34:30;100875.94;;;27.63;49.30
25232;BME280;13176;51.140;6.290;2022-08-03T07:36:57;100795.78;;;27.27;48.61
25232;BME280;13176;51.140;6.290;2022-08-03T07:39:23;100793.59;;;27.32;48.36
25232;BME280;13176;51.140;6.290;2022-08-03T07:41:50;100862.38;;;27.97;47.23
25232;BME280;13176;51.140;6.290;2022-08-03T07:44:18;100863.28;;;28.07;47.59
25232;BME280;13176;51.140;6.290;2022-08-03T07:46:45;100868.66;;;28.07;48.15
25232;BME280;13176;51.140;6.290;2022-08-03T07:49:12;100766.13;;;27.50;48.16
25232;BME280;13176;51.140;6.290;2022-08-03T07:51:39;100825.47;;;27.79;47.83
25232;BME280;13176;51.140;6.290;2022-08-03T07:54:05;100826.03;;;27.93;47.80
25232;BME280;13176;51.140;6.290;2022-08-03T07:56:32;100776.94;;;27.71;47.37
25232;BME280;13176;51.140;6.290;2022-08-03T07:58:59;100788.81;;;27.88;47.21
25232;BME280;13176;51.140;6.290;2022-08-03T08:01:25;100754.59;;;27.70;46.61
25232;BME280;13176;51.140;6.290;2022-08-03T08:03:52;100773.53;;;28.00;46.16
25232;BME280;13176;51.140;6.290;2022-08-03T08:06:19;100782.69;;;27.97;45.91
25232;BME280;13176;51.140;6.290;2022-08-03T08:08:46;100855.00;;;28.62;45.66
25232;BME280;13176;51.140;6.290;2022-08-03T08:11:13;100825.78;;;28.48;44.97
25232;BME280;13176;51.140;6.290;2022-08-03T08:13:39;100830.03;;;28.71;45.11
25232;BME280;13176;51.140;6.290;2022-08-03T08:16:06;100789.25;;;28.36;45.48
25232;BME280;13176;51.140;6.290;2022-08-03T08:18:32;100839.56;;;28.75;45.10
25232;BME280;13176;51.140;6.290;2022-08-03T08:20:59;100863.69;;;28.86;44.30
25232;BME280;13176;51.140;6.290;2022-08-03T08:23:28;100844.78;;;28.97;44.54
25232;BME280;13176;51.140;6.290;2022-08-03T08:26:09;100853.31;;;29.02;44.96
25232;BME280;13176;51.140;6.290;2022-08-03T08:28:35;100752.88;;;28.52;44.58
25232;BME280;13176;51.140;6.290;2022-08-03T08:31:02;100718.22;;;28.29;43.47
25232;BME280;13176;51.140;6.290;2022-08-03T08:33:29;100844.66;;;29.28;43.92
25232;BME280;13176;51.140;6.290;2022-08-03T08:36:16;100783.38;;;28.92;43.02
25232;BME280;13176;51.140;6.290;2022-08-03T08:38:43;100864.59;;;29.55;42.48
25232;BME280;13176;51.140;6.290;2022-08-03T08:41:12;100834.63;;;29.39;42.23
25232;BME280;13176;51.140;6.290;2022-08-03T08:43:40;100811.81;;;29.34;41.98
25232;BME280;13176;51.140;6.290;2022-08-03T08:46:10;100805.25;;;29.47;42.38
25232;BME280;13176;51.140;6.290;2022-08-03T08:48:41;100852.47;;;29.89;41.13
25232;BME280;13176;51.140;6.290;2022-08-03T08:51:10;100846.97;;;29.81;41.78
25232;BME280;13176;51.140;6.290;2022-08-03T08:53:40;100747.22;;;29.24;41.53
25232;BME280;13176;51.140;6.290;2022-08-03T08:56:07;100851.94;;;30.05;41.54
25232;BME280;13176;51.140;6.290;2022-08-03T08:58:37;100851.97;;;30.14;41.51
25232;BME280;13176;51.140;6.290;2022-08-03T09:01:06;100853.13;;;30.21;41.54
25232;BME280;13176;51.140;6.290;2022-08-03T09:03:33;100845.72;;;30.23;41.07
25232;BME280;13176;51.140;6.290;2022-08-03T09:06:00;100864.47;;;30.53;41.42
25232;BME280;13176;51.140;6.290;2022-08-03T09:08:28;100757.66;;;29.95;41.22
25232;BME280;13176;51.140;6.290;2022-08-03T09:10:55;100737.97;;;29.66;41.05
25232;BME280;13176;51.140;6.290;2022-08-03T09:13:22;100816.22;;;30.31;40.98
25232;BME280;13176;51.140;6.290;2022-08-03T09:16:08;100854.50;;;30.63;40.62
25232;BME280;13176;51.140;6.290;2022-08-03T09:18:35;100831.25;;;30.62;40.82
25232;BME280;13176;51.140;6.290;2022-08-03T09:21:21;100863.00;;;30.87;40.50
25232;BME280;13176;51.140;6.290;2022-08-03T09:24:04;100860.22;;;31.06;40.17
25232;BME280;13176;51.140;6.290;2022-08-03T09:26:51;100846.47;;;31.09;40.21
25232;BME280;13176;51.140;6.290;2022-08-03T09:29:19;100841.63;;;31.22;40.08
25232;BME280;13176;51.140;6.290;2022-08-03T09:31:46;100784.13;;;30.66;39.32
25232;BME280;13176;51.140;6.290;2022-08-03T09:34:15;100856.59;;;31.34;39.64
25232;BME280;13176;51.140;6.290;2022-08-03T09:36:47;100855.13;;;31.49;39.92
25232;BME280;13176;51.140;6.290;2022-08-03T09:39:16;100777.69;;;31.22;39.58
25232;BME280;13176;51.140;6.290;2022-08-03T09:41:48;100866.84;;;31.66;39.20
25232;BME280;13176;51.140;6.290;2022-08-03T09:44:32;100698.06;;;30.55;39.08
25232;BME280;13176;51.140;6.290;2022-08-03T09:46:59;100816.31;;;31.50;39.49
25232;BME280;13176;51.140;6.290;2022-08-03T09:49:25;100727.47;;;31.12;39.19
25232;BME280;13176;51.140;6.290;2022-08-03T09:51:53;100788.53;;;31.66;38.67
25232;BME280;13176;51.140;6.290;2022-08-03T09:54:41;100755.06;;;31.59;38.76
25232;BME280;13176;51.140;6.290;2022-08-03T09:57:19;100831.44;;;32.14;37.10
25232;BME280;13176;51.140;6.290;2022-08-03T09:59:47;100825.22;;;32.04;36.66
25232;BME280;13176;51.140;6.290;2022-08-03T10:04:49;100735.31;;;31.50;36.78
25232;BME280;13176;51.140;6.290;2022-08-03T10:07:21;100700.75;;;31.36;36.44
25232;BME280;13176;51.140;6.290;2022-08-03T10:09:59;100810.84;;;31.86;36.76
25232;BME280;13176;51.140;6.290;2022-08-03T10:12:46;100766.28;;;31.72;36.89
25232;BME280;13176;51.140;6.290;2022-08-03T10:15:14;100831.41;;;32.31;36.72
25232;BME280;13176;51.140;6.290;2022-08-03T10:18:00;100739.00;;;31.75;37.00
25232;BME280;13176;51.140;6.290;2022-08-03T10:20:27;100778.06;;;31.98;36.79
25232;BME280;13176;51.140;6.290;2022-08-03T10:22:54;100816.00;;;32.49;36.33
25232;BME280;13176;51.140;6.290;2022-08-03T10:25:21;100820.78;;;32.55;36.10
25232;BME280;13176;51.140;6.290;2022-08-03T10:28:01;100816.34;;;32.29;35.89
25232;BME280;13176;51.140;6.290;2022-08-03T10:30:31;100810.44;;;32.51;36.39
25232;BME280;13176;51.140;6.290;2022-08-03T10:33:04;100825.28;;;32.64;35.69
25232;BME280;13176;51.140;6.290;2022-08-03T10:35:56;100801.06;;;32.88;36.06
25232;BME280;13176;51.140;6.290;2022-08-03T10:38:28;100800.16;;;33.05;35.34
25232;BME280;13176;51.140;6.290;2022-08-03T10:40:58;100796.81;;;33.11;35.76
25232;BME280;13176;51.140;6.290;2022-08-03T10:43:33;100822.56;;;33.15;35.34
25232;BME280;13176;51.140;6.290;2022-08-03T10:46:05;100788.56;;;32.87;35.43
25232;BME280;13176;51.140;6.290;2022-08-03T10:48:33;100808.97;;;33.07;35.81
25232;BME280;13176;51.140;6.290;2022-08-03T10:51:01;100819.75;;;33.24;35.07
25232;BME280;13176;51.140;6.290;2022-08-03T10:53:35;100682.16;;;32.53;35.45
25232;BME280;13176;51.140;6.290;2022-08-03T10:56:03;100780.53;;;33.03;34.71
25232;BME280;13176;51.140;6.290;2022-08-03T10:59:09;100777.84;;;33.03;34.73
25232;BME280;13176;51.140;6.290;2022-08-03T11:01:55;100806.16;;;33.58;35.12
25232;BME280;13176;51.140;6.290;2022-08-03T11:04:26;100757.94;;;33.61;34.74
25232;BME280;13176;51.140;6.290;2022-08-03T11:07:17;100807.63;;;33.94;33.63
25232;BME280;13176;51.140;6.290;2022-08-03T11:12:25;100785.59;;;33.97;34.23
25232;BME280;13176;51.140;6.290;2022-08-03T11:15:03;100759.50;;;33.96;34.43
25232;BME280;13176;51.140;6.290;2022-08-03T11:17:31;100691.53;;;33.49;33.23
25232;BME280;13176;51.140;6.290;2022-08-03T11:20:12;100702.25;;;33.67;32.82
25232;BME280;13176;51.140;6.290;2022-08-03T11:22:49;100728.66;;;33.89;32.66
25232;BME280;13176;51.140;6.290;2022-08-03T11:25:19;100769.69;;;34.25;31.92
25232;BME280;13176;51.140;6.290;2022-08-03T11:28:28;100794.59;;;34.45;32.33
25232;BME280;13176;51.140;6.290;2022-08-03T11:30:56;100727.00;;;34.35;32.29
25232;BME280;13176;51.140;6.290;2022-08-03T11:33:29;100697.50;;;34.40;32.40
25232;BME280;13176;51.140;6.290;2022-08-03T11:35:58;100704.28;;;33.97;31.18
25232;BME280;13176;51.140;6.290;2022-08-03T11:38:25;100788.34;;;34.44;31.11
25232;BME280;13176;51.140;6.290;2022-08-03T11:40:52;100782.94;;;34.44;32.15
25232;BME280;13176;51.140;6.290;2022-08-03T11:45:58;100789.19;;;34.53;32.25
25232;BME280;13176;51.140;6.290;2022-08-03T11:48:36;100785.63;;;34.44;31.19
25232;BME280;13176;51.140;6.290;2022-08-03T11:51:05;100769.38;;;34.28;31.34
25232;BME280;13176;51.140;6.290;2022-08-03T11:53:32;100777.50;;;34.44;32.07
25232;BME280;13176;51.140;6.290;2022-08-03T11:56:07;100698.91;;;34.12;33.16
25232;BME280;13176;51.140;6.290;2022-08-03T11:58:45;100760.88;;;34.31;31.48
25232;BME280;13176;51.140;6.290;2022-08-03T12:01:32;100739.19;;;34.23;30.06
25232;BME280;13176;51.140;6.290;2022-08-03T12:04:03;100752.91;;;34.54;30.47
25232;BME280;13176;51.140;6.290;2022-08-03T12:06:30;100780.22;;;34.28;30.07
25232;BME280;13176;51.140;6.290;2022-08-03T12:08:57;100748.31;;;34.54;31.09
25232;BME280;13176;51.140;6.290;2022-08-03T12:11:24;100729.06;;;34.17;31.00
25232;BME280;13176;51.140;6.290;2022-08-03T12:13:50;100764.56;;;34.78;30.21
25232;BME280;13176;51.140;6.290;2022-08-03T12:16:37;100763.13;;;34.98;30.32
25232;BME280;13176;51.140;6.290;2022-08-03T12:19:04;100777.59;;;35.37;29.94
25232;BME280;13176;51.140;6.290;2022-08-03T12:21:32;100744.22;;;35.28;28.73
25232;BME280;13176;51.140;6.290;2022-08-03T12:24:01;100766.53;;;35.77;28.25
25232;BME280;13176;51.140;6.290;2022-08-03T12:26:29;100706.31;;;35.65;28.37
25232;BME280;13176;51.140;6.290;2022-08-03T12:28:56;100664.88;;;35.33;27.36
25232;BME280;13176;51.140;6.290;2022-08-03T12:31:23;100759.38;;;35.76;27.51
25232;BME280;13176;51.140;6.290;2022-08-03T12:34:02;100754.94;;;35.83;27.71
25232;BME280;13176;51.140;6.290;2022-08-03T12:36:31;100734.75;;;36.00;28.32
25232;BME280;13176;51.140;6.290;2022-08-03T12:39:04;100695.84;;;35.77;26.54
25232;BME280;13176;51.140;6.290;2022-08-03T12:41:40;100719.22;;;35.86;27.10
25232;BME280;13176;51.140;6.290;2022-08-03T12:44:07;100744.69;;;36.15;26.76
25232;BME280;13176;51.140;6.290;2022-08-03T12:46:39;100754.94;;;35.83;26.21
25232;BME280;13176;51.140;6.290;2022-08-03T12:49:14;100759.28;;;35.92;25.94
25232;BME280;13176;51.140;6.290;2022-08-03T12:54:15;100753.53;;;36.32;24.49
25232;BME280;13176;51.140;6.290;2022-08-03T12:57:02;100749.13;;;36.67;26.33
25232;BME280;13176;51.140;6.290;2022-08-03T12:59:36;100754.75;;;36.43;24.72
25232;BME280;13176;51.140;6.290;2022-08-03T13:02:23;100728.53;;;36.50;25.08
25232;BME280;13176;51.140;6.290;2022-08-03T13:04:52;100753.53;;;36.68;25.46
25232;BME280;13176;51.140;6.290;2022-08-03T13:07:20;100724.56;;;36.39;24.83
25232;BME280;13176;51.140;6.290;2022-08-03T13:09:49;100725.47;;;36.45;25.46
25232;BME280;13176;51.140;6.290;2022-08-03T13:12:20;100660.69;;;35.98;25.36
25232;BME280;13176;51.140;6.290;2022-08-03T13:14:49;100665.16;;;35.91;25.16
25232;BME280;13176;51.140;6.290;2022-08-03T13:17:16;100658.41;;;36.01;25.71
25232;BME280;13176;51.140;6.290;2022-08-03T13:19:44;100745.56;;;36.44;25.17
25232;BME280;13176;51.140;6.290;2022-08-03T13:22:21;100745.88;;;36.13;25.04
25232;BME280;13176;51.140;6.290;2022-08-03T13:24:50;100649.13;;;35.59;24.57
25232;BME280;13176;51.140;6.290;2022-08-03T13:27:18;100647.16;;;35.90;25.61
25232;BME280;13176;51.140;6.290;2022-08-03T13:30:06;100737.84;;;36.56;24.90